createdAt,value
2019-05-11T00:00:27.758Z,99.30
2019-05-11T00:02:58.344Z,99.00
2019-05-11T00:05:29.953Z,99.00
2019-05-11T00:08:00.663Z,98.80
2019-05-11T00:10:31.131Z,98.70
2019-05-11T00:13:01.633Z,98.60
2019-05-11T00:15:32.187Z,98.50
2019-05-11T00:18:02.750Z,98.60
2019-05-11T00:20:33.410Z,98.70
2019-05-11T00:23:04.002Z,98.70
2019-05-11T00:25:34.597Z,98.80
2019-05-11T00:28:05.208Z,98.90
2019-05-11T00:30:35.881Z,99.30
2019-05-11T00:33:06.550Z,99.30
2019-05-11T00:35:37.084Z,99.30
2019-05-11T00:38:07.563Z,99.20
2019-05-11T00:40:38.072Z,99.20
2019-05-11T00:43:08.655Z,98.90
2019-05-11T00:45:39.107Z,98.80
2019-05-11T00:48:09.635Z,99.00
2019-05-11T00:50:40.218Z,99.00
2019-05-11T00:53:12.020Z,99.00
2019-05-11T00:55:42.535Z,99.10
2019-05-11T00:58:13.151Z,99.10
2019-05-11T01:00:43.854Z,99.00
2019-05-11T01:03:14.399Z,98.90
2019-05-11T01:05:46.112Z,98.80
2019-05-11T01:08:16.741Z,98.80
2019-05-11T01:10:47.292Z,98.90
2019-05-11T01:13:17.806Z,98.90
2019-05-11T01:15:48.313Z,99.00
2019-05-11T01:18:18.776Z,99.00
2019-05-11T01:20:49.294Z,99.00
2019-05-11T01:23:19.867Z,98.90
2019-05-11T01:25:50.531Z,99.10
2019-05-11T01:28:21.058Z,99.20
2019-05-11T01:30:51.683Z,99.40
2019-05-11T01:33:22.176Z,99.50
2019-05-11T01:35:52.655Z,99.60
2019-05-11T01:38:23.188Z,99.70
2019-05-11T01:40:58.561Z,99.90
2019-05-11T01:43:25.766Z,99.90
2019-05-11T01:45:56.386Z,99.90
2019-05-11T01:48:26.865Z,99.90
2019-05-11T01:50:57.376Z,99.90
2019-05-11T01:53:27.989Z,99.90
2019-05-11T01:55:58.489Z,99.90
2019-05-11T01:58:29.024Z,99.80
2019-05-11T02:00:59.578Z,99.80
2019-05-11T02:03:30.049Z,99.80
2019-05-11T02:06:00.616Z,99.60
2019-05-11T02:08:31.139Z,99.60
2019-05-11T02:11:14.965Z,99.60
2019-05-11T02:13:34.152Z,99.60
2019-05-11T02:16:04.660Z,99.60
2019-05-11T02:18:35.540Z,99.60
2019-05-11T02:21:06.139Z,99.50
2019-05-11T02:23:36.678Z,99.40
2019-05-11T02:26:07.211Z,99.40
2019-05-11T02:28:37.721Z,99.20
2019-05-11T02:31:08.373Z,99.00
2019-05-11T02:33:38.809Z,98.80
2019-05-11T02:36:09.291Z,98.90
2019-05-11T02:38:39.892Z,98.90
2019-05-11T02:41:10.412Z,98.70
2019-05-11T02:43:41.310Z,98.80
2019-05-11T02:46:11.814Z,98.90
2019-05-11T02:48:42.327Z,98.90
2019-05-11T02:51:13.320Z,99.00
2019-05-11T02:53:44.823Z,99.00
2019-05-11T02:56:15.319Z,99.00
2019-05-11T02:58:45.905Z,99.10
2019-05-11T03:01:16.795Z,99.30
2019-05-11T03:03:47.321Z,99.40
2019-05-11T03:06:17.839Z,99.30
2019-05-11T03:08:48.343Z,99.40
2019-05-11T03:11:19.458Z,99.60
2019-05-11T03:13:50.058Z,99.40
2019-05-11T03:16:20.703Z,99.60
2019-05-11T03:18:51.166Z,99.60
2019-05-11T03:21:21.793Z,99.70
2019-05-11T03:23:52.388Z,99.90
2019-05-11T03:26:22.881Z,99.90
2019-05-11T03:28:53.427Z,99.90
2019-05-11T03:31:23.990Z,99.90
2019-05-11T03:33:54.506Z,99.90
2019-05-11T03:36:25.056Z,99.90
2019-05-11T03:38:55.648Z,99.90
2019-05-11T03:41:26.153Z,99.80
2019-05-11T03:43:56.814Z,99.90
2019-05-11T03:46:27.366Z,99.90
2019-05-11T03:48:57.821Z,99.80
2019-05-11T03:51:28.339Z,99.90
2019-05-11T03:53:58.812Z,99.90
2019-05-11T03:56:29.441Z,99.90
2019-05-11T03:58:59.988Z,99.90
2019-05-11T04:01:30.488Z,99.90
2019-05-11T04:04:00.992Z,99.90
2019-05-11T04:06:31.711Z,99.90
2019-05-11T04:09:02.260Z,99.90
2019-05-11T04:11:33.960Z,99.90
2019-05-11T04:14:04.434Z,99.90
2019-05-11T04:16:34.916Z,99.90
2019-05-11T04:19:05.435Z,99.90
2019-05-11T04:21:36.044Z,99.90
2019-05-11T04:24:06.578Z,99.90
2019-05-11T04:26:37.051Z,99.90
2019-05-11T04:29:07.483Z,99.90
2019-05-11T04:31:38.157Z,99.90
2019-05-11T04:34:08.686Z,99.90
2019-05-11T04:36:39.135Z,99.90
2019-05-11T04:39:09.634Z,99.90
2019-05-11T04:41:40.158Z,99.90
2019-05-11T04:44:10.747Z,99.90
2019-05-11T04:46:41.458Z,99.90
2019-05-11T04:49:11.902Z,99.90
2019-05-11T04:51:42.393Z,99.90
2019-05-11T04:54:12.908Z,99.90
2019-05-11T04:56:43.438Z,99.90
2019-05-11T04:59:13.882Z,99.90
2019-05-11T05:01:44.371Z,99.90
2019-05-11T05:04:14.885Z,99.90
2019-05-11T05:06:58.879Z,99.90
2019-05-11T05:09:18.830Z,99.90
2019-05-11T05:11:49.354Z,99.90
2019-05-11T05:14:19.834Z,99.90
2019-05-11T05:16:50.442Z,99.90
2019-05-11T05:19:20.945Z,99.90
2019-05-11T05:21:51.488Z,99.90
2019-05-11T05:24:22.032Z,99.90
2019-05-11T05:26:52.568Z,99.90
2019-05-11T05:29:23.094Z,99.80
2019-05-11T05:31:54.816Z,99.70
2019-05-11T05:34:25.440Z,99.70
2019-05-11T05:36:55.924Z,99.70
2019-05-11T05:39:26.523Z,99.60
2019-05-11T05:41:57.732Z,99.50
2019-05-11T05:44:28.553Z,99.50
2019-05-11T05:46:59.069Z,99.40
2019-05-11T05:49:29.548Z,99.30
2019-05-11T05:52:00.157Z,99.20
2019-05-11T05:54:30.712Z,99.10
2019-05-11T05:57:01.261Z,98.70
2019-05-11T05:59:31.972Z,98.60
2019-05-11T06:02:02.447Z,98.40
2019-05-11T06:04:33.082Z,98.60
2019-05-11T06:07:03.592Z,98.30
2019-05-11T06:09:34.101Z,98.20
2019-05-11T06:12:04.630Z,98.20
2019-05-11T06:14:35.127Z,98.20
2019-05-11T06:17:17.865Z,98.20
2019-05-11T06:19:49.456Z,98.30
2019-05-11T06:22:19.961Z,98.20
2019-05-11T06:24:50.529Z,98.10
2019-05-11T06:27:21.022Z,98.20
2019-05-11T06:29:51.494Z,98.10
2019-05-11T06:32:22.120Z,97.90
2019-05-11T06:34:52.668Z,97.50
2019-05-11T06:37:23.236Z,97.80
2019-05-11T06:39:53.720Z,97.60
2019-05-11T06:42:24.231Z,97.70
2019-05-11T06:44:54.742Z,97.70
2019-05-11T06:47:25.194Z,97.40
2019-05-11T06:49:56.878Z,97.40
2019-05-11T06:52:27.916Z,97.40
2019-05-11T06:54:58.427Z,97.60
2019-05-11T06:57:28.917Z,97.60
2019-05-11T06:59:59.572Z,97.30
2019-05-11T07:02:30.144Z,97.40
2019-05-11T07:05:00.649Z,97.00
2019-05-11T07:07:46.095Z,96.90
2019-05-11T07:10:05.227Z,99.70
2019-05-11T07:12:35.754Z,95.90
2019-05-11T07:15:06.767Z,95.40
2019-05-11T07:17:37.314Z,95.10
2019-05-11T07:20:08.555Z,95.00
2019-05-11T07:22:39.136Z,95.10
2019-05-11T07:25:09.741Z,94.70
2019-05-11T07:27:40.555Z,94.80
2019-05-11T07:30:11.127Z,94.80
2019-05-11T07:32:41.848Z,94.50
2019-05-11T07:35:12.460Z,94.00
2019-05-11T07:37:43.083Z,94.10
2019-05-11T07:40:13.967Z,93.80
2019-05-11T07:42:44.549Z,93.40
2019-05-11T07:45:15.218Z,93.20
2019-05-11T07:47:48.338Z,93.00
2019-05-11T07:50:18.370Z,92.70
2019-05-11T07:52:49.022Z,93.10
2019-05-11T07:55:19.577Z,92.10
2019-05-11T07:57:50.217Z,92.00
2019-05-11T08:00:20.882Z,91.90
2019-05-11T08:02:51.489Z,91.40
2019-05-11T08:05:21.979Z,91.70
2019-05-11T08:07:52.447Z,91.80
2019-05-11T08:10:22.935Z,91.40
2019-05-11T08:12:53.429Z,91.30
2019-05-11T08:15:23.975Z,91.40
2019-05-11T08:17:54.420Z,92.00
2019-05-11T08:20:24.925Z,90.80
2019-05-11T08:22:55.568Z,90.50
2019-05-11T08:25:28.494Z,90.60
2019-05-11T08:27:58.796Z,90.90
2019-05-11T08:30:29.444Z,90.90
2019-05-11T08:32:59.954Z,90.80
2019-05-11T08:35:31.279Z,91.00
2019-05-11T08:38:02.108Z,90.70
2019-05-11T08:40:32.629Z,89.10
2019-05-11T08:43:03.549Z,88.30
2019-05-11T08:45:34.033Z,85.60
2019-05-11T08:48:04.535Z,85.90
2019-05-11T08:50:35.040Z,85.00
2019-05-11T08:53:05.823Z,84.20
2019-05-11T08:55:38.138Z,83.10
2019-05-11T08:58:08.680Z,82.50
2019-05-11T09:00:39.406Z,82.50
2019-05-11T09:03:09.925Z,80.20
2019-05-11T09:05:40.534Z,79.90
2019-05-11T09:08:11.106Z,81.50
2019-05-11T09:10:41.596Z,80.30
2019-05-11T09:13:12.122Z,80.50
2019-05-11T09:15:42.607Z,81.20
2019-05-11T09:18:13.200Z,78.80
2019-05-11T09:20:43.799Z,94.20
2019-05-11T09:23:29.874Z,75.30
2019-05-11T09:25:47.688Z,73.30
2019-05-11T09:28:18.398Z,72.70
2019-05-11T09:30:48.917Z,72.10
2019-05-11T09:33:20.810Z,70.70
2019-05-11T09:35:53.437Z,68.50
2019-05-11T09:38:23.745Z,67.00
2019-05-11T09:40:54.345Z,65.50
2019-05-11T09:43:25.061Z,64.60
2019-05-11T09:45:58.047Z,65.90
2019-05-11T09:48:28.397Z,65.90
2019-05-11T09:50:59.103Z,65.60
2019-05-11T09:53:30.837Z,65.20
2019-05-11T09:56:01.437Z,65.40
2019-05-11T09:58:31.964Z,64.60
2019-05-11T10:03:32.419Z,60.60
2019-05-11T10:06:02.997Z,60.30
2019-05-11T10:08:33.515Z,55.70
2019-05-11T10:11:04.007Z,53.10
2019-05-11T10:13:34.543Z,52.30
2019-05-11T10:16:08.101Z,52.70
2019-05-11T10:18:38.556Z,54.60
2019-05-11T10:21:09.329Z,51.80
2019-05-11T10:23:42.557Z,51.10
2019-05-11T10:26:12.133Z,52.90
2019-05-11T10:28:42.753Z,55.60
2019-05-11T10:31:13.379Z,56.60
2019-05-11T10:33:44.093Z,58.20
2019-05-11T10:36:14.586Z,56.60
2019-05-11T10:38:45.293Z,53.20
2019-05-11T10:41:18.160Z,51.20
2019-05-11T10:43:49.176Z,48.80
2019-05-11T10:46:23.347Z,48.40
2019-05-11T10:48:52.177Z,45.40
2019-05-11T10:51:22.733Z,46.90
2019-05-11T10:53:53.350Z,48.80
2019-05-11T10:56:23.812Z,51.10
2019-05-11T10:58:54.339Z,50.50
2019-05-11T11:01:24.863Z,51.70
2019-05-11T11:03:55.420Z,54.10
2019-05-11T11:06:28.018Z,55.20
2019-05-11T11:08:58.139Z,55.30
2019-05-11T11:11:29.016Z,54.30
2019-05-11T11:13:59.575Z,49.60
2019-05-11T11:16:36.912Z,46.70
2019-05-11T11:19:02.330Z,41.70
2019-05-11T11:21:32.858Z,42.30
2019-05-11T11:24:03.489Z,43.90
2019-05-11T11:26:34.044Z,46.10
2019-05-11T11:29:04.613Z,48.40
2019-05-11T11:31:35.179Z,47.60
2019-05-11T11:34:08.006Z,47.20
2019-05-11T11:36:37.986Z,48.30
2019-05-11T11:39:08.891Z,49.60
2019-05-11T11:41:39.401Z,53.10
2019-05-11T11:44:09.891Z,47.80
2019-05-11T11:46:51.218Z,45.70
2019-05-11T11:49:12.695Z,45.10
2019-05-11T11:51:43.231Z,45.20
2019-05-11T11:54:14.677Z,45.60
2019-05-11T11:56:45.221Z,45.70
2019-05-11T11:59:17.686Z,47.50
2019-05-11T12:01:48.703Z,46.50
2019-05-11T12:04:19.455Z,44.10
2019-05-11T12:09:19.835Z,38.30
2019-05-11T12:11:50.354Z,36.60
2019-05-11T12:14:20.842Z,35.30
2019-05-11T12:17:03.969Z,36.90
2019-05-11T12:19:23.611Z,37.10
2019-05-11T12:24:24.203Z,32.80
2019-05-11T12:26:55.693Z,31.40
2019-05-11T12:29:28.191Z,33.40
2019-05-11T12:32:00.453Z,30.00
2019-05-11T12:34:30.962Z,30.80
2019-05-11T12:37:01.486Z,32.00
2019-05-11T12:39:32.025Z,34.20
2019-05-11T12:42:02.672Z,37.40
2019-05-11T12:44:33.175Z,38.30
2019-05-11T12:47:18.459Z,40.90
2019-05-11T12:49:36.346Z,42.80
2019-05-11T12:52:07.823Z,39.20
2019-05-11T12:54:38.549Z,38.90
2019-05-11T12:57:09.162Z,38.70
2019-05-11T12:59:39.655Z,40.40
2019-05-11T13:02:10.185Z,43.70
2019-05-11T13:04:40.673Z,43.30
2019-05-11T13:07:11.172Z,42.40
2019-05-11T13:09:41.671Z,42.70
2019-05-11T13:12:12.237Z,42.40
2019-05-11T13:14:42.775Z,43.60
2019-05-11T13:17:13.364Z,41.80
2019-05-11T13:19:44.922Z,36.50
2019-05-11T13:22:15.477Z,36.30
2019-05-11T13:24:48.062Z,34.50
2019-05-11T13:27:18.182Z,31.40
2019-05-11T13:29:48.805Z,32.10
2019-05-11T13:32:19.394Z,33.40
2019-05-11T13:34:49.884Z,32.60
2019-05-11T13:39:50.322Z,30.80
2019-05-11T13:42:23.214Z,30.70
2019-05-11T13:47:48.534Z,27.00
2019-05-11T13:50:07.762Z,26.70
2019-05-11T13:52:38.669Z,26.00
2019-05-11T13:55:09.734Z,26.00
2019-05-11T13:57:40.973Z,29.10
2019-05-11T14:00:11.597Z,30.80
2019-05-11T14:02:42.161Z,31.00
2019-05-11T14:05:12.895Z,34.10
2019-05-11T14:07:43.586Z,31.40
2019-05-11T14:10:14.232Z,30.90
2019-05-11T14:12:44.834Z,29.70
2019-05-11T14:15:18.114Z,31.10
2019-05-11T14:17:48.767Z,31.10
2019-05-11T14:20:20.589Z,31.20
2019-05-11T14:22:51.608Z,32.30
2019-05-11T14:25:22.211Z,31.50
2019-05-11T14:27:52.709Z,30.50
2019-05-11T14:30:23.312Z,29.80
2019-05-11T14:32:53.792Z,28.20
2019-05-11T14:35:24.435Z,27.40
2019-05-11T14:37:54.926Z,27.00
2019-05-11T14:40:25.457Z,26.20
2019-05-11T14:42:57.977Z,27.20
2019-05-11T14:45:28.884Z,29.20
2019-05-11T14:47:59.599Z,31.80
2019-05-11T14:50:30.098Z,33.30
2019-05-11T14:53:00.611Z,35.20
2019-05-11T14:55:31.254Z,32.90
2019-05-11T14:58:01.884Z,29.90
2019-05-11T15:00:32.487Z,28.90
2019-05-11T15:03:03.051Z,29.90
2019-05-11T15:05:33.667Z,27.70
2019-05-11T15:08:04.291Z,26.80
2019-05-11T15:10:34.953Z,25.50
2019-05-11T15:13:07.848Z,25.00
2019-05-11T15:15:39.441Z,25.10
2019-05-11T15:18:10.118Z,27.10
2019-05-11T15:20:40.636Z,29.30
2019-05-11T15:23:11.686Z,32.40
2019-05-11T15:25:42.313Z,34.30
2019-05-11T15:28:12.803Z,37.20
2019-05-11T15:30:43.284Z,37.80
2019-05-11T15:33:13.793Z,39.80
2019-05-11T15:35:44.285Z,38.10
2019-05-11T15:38:14.804Z,39.50
2019-05-11T15:40:45.343Z,41.40
2019-05-11T15:43:17.763Z,41.70
2019-05-11T15:45:48.697Z,42.90
2019-05-11T15:48:19.587Z,44.20
2019-05-11T15:50:50.170Z,44.00
2019-05-11T15:53:20.750Z,43.90
2019-05-11T15:55:51.242Z,44.80
2019-05-11T15:58:21.952Z,44.20
2019-05-11T16:00:52.899Z,44.50
2019-05-11T16:03:23.527Z,43.90
2019-05-11T16:05:53.992Z,43.20
2019-05-11T16:08:24.587Z,42.20
2019-05-11T16:10:55.202Z,41.60
2019-05-11T16:13:25.691Z,43.00
2019-05-11T16:15:57.758Z,43.80
2019-05-11T16:18:28.427Z,42.70
2019-05-11T16:20:58.957Z,42.70
2019-05-11T16:23:29.418Z,43.60
2019-05-11T16:26:00.053Z,44.10
2019-05-11T16:28:31.001Z,43.90
2019-05-11T16:31:01.707Z,44.20
2019-05-11T16:33:32.317Z,43.90
2019-05-11T16:36:02.942Z,44.00
2019-05-11T16:38:33.593Z,44.10
2019-05-11T16:41:04.132Z,44.30
2019-05-11T16:43:34.751Z,43.60
2019-05-11T16:46:05.357Z,43.00
2019-05-11T16:48:38.125Z,42.90
2019-05-11T16:51:08.618Z,43.30
2019-05-11T16:53:39.482Z,44.10
2019-05-11T16:56:09.990Z,42.60
2019-05-11T16:58:41.026Z,43.00
2019-05-11T17:01:11.856Z,42.40
2019-05-11T17:03:42.382Z,42.60
2019-05-11T17:06:12.941Z,42.90
2019-05-11T17:08:43.500Z,42.60
2019-05-11T17:11:14.019Z,41.80
2019-05-11T17:13:45.166Z,41.10
2019-05-11T17:16:17.750Z,40.50
2019-05-11T17:18:48.499Z,41.30
2019-05-11T17:21:19.361Z,41.90
2019-05-11T17:23:49.874Z,42.10
2019-05-11T17:26:20.613Z,41.90
2019-05-11T17:28:51.221Z,42.30
2019-05-11T17:31:21.758Z,42.40
2019-05-11T17:33:52.282Z,42.40
2019-05-11T17:36:22.788Z,42.70
2019-05-11T17:38:53.317Z,42.50
2019-05-11T17:41:23.895Z,42.60
2019-05-11T17:43:54.428Z,42.60
2019-05-11T17:48:54.710Z,42.40
2019-05-11T17:51:25.354Z,43.70
2019-05-11T17:53:55.844Z,43.60
2019-05-11T17:56:27.973Z,43.90
2019-05-11T17:58:58.559Z,43.80
2019-05-11T18:01:29.037Z,44.20
2019-05-11T18:03:59.522Z,45.10
2019-05-11T18:06:30.100Z,44.50
2019-05-11T18:09:00.697Z,44.10
2019-05-11T18:11:32.961Z,44.50
2019-05-11T18:14:03.482Z,44.60
2019-05-11T18:16:34.088Z,44.60
2019-05-11T18:19:04.655Z,43.70
2019-05-11T18:21:35.150Z,43.30
2019-05-11T18:24:05.656Z,43.30
2019-05-11T18:26:38.183Z,43.40
2019-05-11T18:29:08.505Z,43.30
2019-05-11T18:31:38.953Z,43.30
2019-05-11T18:34:09.479Z,44.30
2019-05-11T18:36:41.072Z,44.40
2019-05-11T18:39:11.548Z,44.70
2019-05-11T18:41:42.067Z,44.70
2019-05-11T18:44:12.627Z,44.50
2019-05-11T18:46:43.133Z,44.50
2019-05-11T18:49:13.951Z,44.20
2019-05-11T18:51:44.397Z,44.10
2019-05-11T18:54:14.955Z,44.10
2019-05-11T19:09:14.964Z,45.80
2019-05-11T19:11:45.556Z,46.20
2019-05-11T19:14:16.318Z,46.50
2019-05-11T19:16:49.003Z,46.90
2019-05-11T19:19:19.297Z,46.90
2019-05-11T19:21:49.921Z,46.80
2019-05-11T19:24:20.754Z,46.20
2019-05-11T19:26:51.569Z,46.80
2019-05-11T19:29:22.130Z,47.80
2019-05-11T19:31:52.699Z,53.10
2019-05-11T19:34:23.307Z,56.80
2019-05-11T19:36:54.005Z,58.60
2019-05-11T19:39:24.502Z,59.10
2019-05-11T19:41:55.096Z,59.40
2019-05-11T19:44:27.812Z,59.20
2019-05-11T19:46:58.207Z,59.40
2019-05-11T19:49:28.855Z,58.00
2019-05-11T19:52:00.419Z,58.10
2019-05-11T19:54:30.991Z,58.20
2019-05-11T19:57:01.586Z,58.00
2019-05-11T19:59:32.207Z,57.80
2019-05-11T20:02:02.901Z,58.30
2019-05-11T20:04:33.475Z,58.00
2019-05-11T20:07:04.159Z,58.90
2019-05-11T20:09:34.627Z,58.90
2019-05-11T20:12:05.298Z,59.70
2019-05-11T20:14:37.868Z,59.90
2019-05-11T20:17:08.915Z,61.20
2019-05-11T20:19:39.585Z,62.40
2019-05-11T20:22:10.195Z,63.10
2019-05-11T20:24:41.899Z,64.10
2019-05-11T20:27:12.495Z,64.00
2019-05-11T20:29:43.188Z,64.80
2019-05-11T20:32:13.747Z,65.40
2019-05-11T20:34:44.343Z,65.70
2019-05-11T20:37:15.094Z,67.20
2019-05-11T20:39:48.028Z,67.40
2019-05-11T20:42:18.244Z,68.50
2019-05-11T20:44:48.927Z,68.90
2019-05-11T20:47:19.549Z,68.90
2019-05-11T20:49:50.177Z,69.50
2019-05-11T20:52:20.806Z,70.40
2019-05-11T20:54:51.473Z,70.70
2019-05-11T20:57:22.049Z,71.10
2019-05-11T20:59:52.633Z,71.30
2019-05-11T21:02:23.476Z,72.80
2019-05-11T21:04:54.104Z,73.00
2019-05-11T21:07:24.655Z,74.30
2019-05-11T21:09:57.315Z,74.10
2019-05-11T21:12:28.947Z,74.30
2019-05-11T21:14:59.551Z,74.80
2019-05-11T21:17:30.101Z,75.40
2019-05-11T21:20:00.675Z,76.30
2019-05-11T21:22:31.242Z,77.70
2019-05-11T21:25:02.039Z,78.10
2019-05-11T21:27:32.737Z,78.50
2019-05-11T21:30:03.427Z,78.50
2019-05-11T21:32:34.007Z,78.60
2019-05-11T21:35:05.034Z,79.50
2019-05-11T21:37:38.395Z,79.50
2019-05-11T21:40:08.737Z,79.70
2019-05-11T21:42:39.500Z,80.10
2019-05-11T21:45:10.433Z,80.90
2019-05-11T21:47:40.904Z,81.20
2019-05-11T21:50:12.018Z,82.10
2019-05-11T21:52:42.634Z,83.80
2019-05-11T21:55:13.384Z,84.00
2019-05-11T21:57:44.023Z,83.70
2019-05-11T22:00:15.578Z,84.40
2019-05-11T22:02:48.611Z,85.10
2019-05-11T22:05:20.953Z,85.30
2019-05-11T22:07:51.690Z,85.00
2019-05-11T22:10:22.413Z,84.40
2019-05-11T22:12:54.046Z,83.60
2019-05-11T22:15:24.636Z,82.10
2019-05-11T22:17:55.284Z,81.60
2019-05-11T22:20:25.873Z,81.50
2019-05-11T22:22:58.190Z,81.20
2019-05-11T22:25:28.944Z,82.60
2019-05-11T22:27:59.640Z,81.80
2019-05-11T22:30:30.213Z,81.50
2019-05-11T22:33:00.773Z,81.20
2019-05-11T22:35:31.374Z,81.50
2019-05-11T22:38:02.199Z,82.00
2019-05-11T22:40:32.802Z,83.30
2019-05-11T22:43:03.433Z,81.90
2019-05-11T22:45:34.110Z,83.10
2019-05-11T22:48:07.966Z,80.60
2019-05-11T22:50:38.438Z,80.60
2019-05-11T22:53:11.570Z,80.50
2019-05-11T22:55:41.249Z,81.20
2019-05-11T22:58:11.870Z,83.10
2019-05-11T23:00:44.577Z,82.40
2019-05-11T23:03:15.286Z,80.50
2019-05-11T23:05:47.690Z,80.60
2019-05-11T23:08:18.358Z,80.90
2019-05-11T23:10:49.176Z,82.60
2019-05-11T23:13:20.160Z,85.00
2019-05-11T23:15:50.785Z,85.90
2019-05-11T23:18:21.641Z,88.90
2019-05-11T23:20:52.224Z,90.00
2019-05-11T23:23:23.053Z,90.40
2019-05-11T23:25:53.694Z,90.10
2019-05-11T23:28:24.395Z,87.90
2019-05-11T23:30:54.998Z,84.30
2019-05-11T23:33:27.943Z,85.10
2019-05-11T23:35:58.727Z,85.90
2019-05-11T23:38:29.462Z,90.10
2019-05-11T23:40:59.958Z,91.60
2019-05-11T23:43:30.510Z,92.20
2019-05-11T23:46:01.048Z,88.30
2019-05-11T23:48:31.496Z,85.70
2019-05-11T23:51:02.055Z,84.20
2019-05-11T23:53:32.705Z,85.70
2019-05-11T23:56:03.503Z,85.20
2019-05-11T23:58:34.102Z,85.20
